Time;durP1;ratioP1;P1;durP2;ratioP2;P2;SDS_P1;SDS_P2;PMS_P1;PMS_P2;Temp;Humidity;BMP_temperature;BMP_pressure;BME280_temperature;BME280_humidity;BME280_pressure;Samples;Min_cycle;Max_cycle;Signal;HPM_P1;HPM_P2
2022/11/09 00:02:14;;;;;;;21.23;10.37;;;;;;;8.76;nan;-24061.81;5031819;28;20228;-75
2022/11/09 00:04:40;;;;;;;24.07;11.07;;;;;;;8.68;nan;-24059.56;5031658;28;20202;-74
2022/11/09 00:07:05;;;;;;;26.50;9.90;;;;;;;8.58;nan;-24056.59;5031878;28;20630;-74
2022/11/09 00:09:31;;;;;;;24.20;9.40;;;;;;;8.27;nan;-24048.09;5031731;28;20167;-74
2022/11/09 00:11:56;;;;;;;23.43;10.00;;;;;;;8.31;nan;-24049.22;5031441;28;20210;-74
2022/11/09 00:14:21;;;;;;;16.83;9.27;;;;;;;8.39;nan;-24051.34;5031849;28;20175;-74
2022/11/09 00:16:47;;;;;;;23.33;8.60;;;;;;;8.34;nan;-24050.06;5031417;28;20171;-74
2022/11/09 00:19:12;;;;;;;19.03;9.33;;;;;;;8.20;nan;-24046.09;5031485;28;20254;-75
2022/11/09 00:21:38;;;;;;;21.13;9.33;;;;;;;8.27;nan;-24047.94;5031722;28;20207;-74
2022/11/09 00:24:04;;;;;;;17.03;9.33;;;;;;;8.04;nan;-24041.44;5031827;28;20175;-74
2022/11/09 00:26:30;;;;;;;26.87;9.17;;;;;;;7.81;nan;-24035.06;5031583;28;20223;-74
2022/11/09 00:28:55;;;;;;;21.37;8.73;;;;;;;8.20;nan;-24045.97;5033601;28;20183;-74
2022/11/09 00:31:22;;;;;;;19.70;10.23;;;;;;;8.17;nan;-24045.25;5035698;28;20207;-74
2022/11/09 00:33:53;;;;;;;17.17;8.57;;;;;;;8.13;nan;-24044.00;5035435;28;20270;-75
2022/11/09 00:36:20;;;;;;;18.83;9.83;;;;;;;8.09;nan;-24042.84;5035511;28;20584;-76
2022/11/09 00:38:53;;;;;;;19.53;9.53;;;;;;;7.98;nan;-24040.03;5035843;28;20610;-75
2022/11/09 00:41:19;;;;;;;16.80;8.23;;;;;;;8.09;nan;-24042.84;5035691;28;20203;-74
2022/11/09 00:43:46;;;;;;;19.10;8.93;;;;;;;7.92;nan;-24038.31;5035734;28;20175;-75
2022/11/09 00:46:11;;;;;;;18.50;8.43;;;;;;;8.00;nan;-24040.59;5035804;28;20571;-75
2022/11/09 00:48:37;;;;;;;16.63;9.53;;;;;;;7.89;nan;-24037.31;5035026;28;20237;-75
2022/11/09 00:51:03;;;;;;;18.70;8.97;;;;;;;7.45;nan;-24025.13;5034097;28;20214;-75
2022/11/09 00:53:29;;;;;;;15.33;8.77;;;;;;;7.55;nan;-24027.84;5035427;28;20178;-74
2022/11/09 00:56:03;;;;;;;21.63;9.57;;;;;;;7.78;nan;-24034.22;5035368;28;20266;-74
2022/11/09 00:58:31;;;;;;;16.40;9.73;;;;;;;7.35;nan;-24022.16;5035145;28;20170;-74
2022/11/09 01:00:58;;;;;;;16.07;9.87;;;;;;;7.30;nan;-24020.88;5035786;28;20282;-74
2022/11/09 01:03:25;;;;;;;20.50;9.40;;;;;;;7.26;nan;-24019.63;5035104;28;20183;-74
2022/11/09 01:05:52;;;;;;;15.53;8.60;;;;;;;7.55;nan;-24027.97;5035068;28;20183;-75
2022/11/09 01:08:18;;;;;;;25.93;9.30;;;;;;;7.48;nan;-24025.84;5034884;28;20233;-74
2022/11/09 01:10:46;;;;;;;21.20;10.37;;;;;;;7.34;nan;-24022.03;5034745;28;20185;-75
2022/11/09 01:13:15;;;;;;;20.47;8.07;;;;;;;7.51;nan;-24026.69;5034549;28;20176;-74
2022/11/09 01:15:46;;;;;;;20.43;9.40;;;;;;;7.48;nan;-24026.00;5034542;28;20630;-73
2022/11/09 01:18:13;;;;;;;16.53;9.40;;;;;;;7.50;nan;-24026.56;5034417;28;20195;-74
2022/11/09 01:20:40;;;;;;;21.67;9.70;;;;;;;7.43;nan;-24024.44;5034775;28;20222;-74
2022/11/09 01:23:05;;;;;;;13.10;8.27;;;;;;;7.06;nan;-24014.09;5034829;28;20171;-74
2022/11/09 01:25:31;;;;;;;15.17;9.10;;;;;;;7.37;nan;-24022.72;5035130;28;20185;-75
2022/11/09 01:27:58;;;;;;;21.13;8.40;;;;;;;7.40;nan;-24023.59;5032858;28;20274;-75
2022/11/09 01:30:23;;;;;;;15.70;8.33;;;;;;;7.13;nan;-24015.94;5034851;28;20599;-74
2022/11/09 01:32:49;;;;;;;15.73;8.73;;;;;;;6.96;nan;-24011.25;5034552;28;20263;-75
2022/11/09 01:35:14;;;;;;;20.70;10.23;;;;;;;7.02;nan;-24013.09;5034655;28;20662;-74
2022/11/09 01:37:39;;;;;;;21.60;10.47;;;;;;;7.06;nan;-24014.22;5033531;28;20238;-74
2022/11/09 01:40:05;;;;;;;14.47;7.87;;;;;;;7.38;nan;-24023.00;5034109;28;20199;-74
2022/11/09 01:42:35;;;;;;;17.70;9.03;;;;;;;7.19;nan;-24017.63;5034573;28;20175;-74
2022/11/09 01:45:26;;;;;;;19.93;9.87;;;;;;;7.30;nan;-24020.75;5034295;28;20509;-74
2022/11/09 01:48:03;;;;;;;28.33;9.77;;;;;;;7.12;nan;-24015.78;5034340;28;20608;-74
2022/11/09 01:50:52;;;;;;;23.10;8.97;;;;;;;7.52;nan;-24026.97;5034620;28;20250;-74
2022/11/09 01:53:22;;;;;;;15.67;8.73;;;;;;;7.41;nan;-24024.00;5034334;28;20160;-75
2022/11/09 01:55:52;;;;;;;18.40;9.13;;;;;;;7.13;nan;-24015.94;5034350;28;20694;-74
2022/11/09 01:58:23;;;;;;;15.57;8.93;;;;;;;7.23;nan;-24018.91;5034199;28;20171;-74
2022/11/09 02:00:50;;;;;;;21.83;10.57;;;;;;;7.42;nan;-24024.28;5034463;28;20199;-74
2022/11/09 02:03:38;;;;;;;14.10;8.90;;;;;;;7.44;nan;-24024.88;5034168;28;20225;-74
2022/11/09 02:06:07;;;;;;;15.60;8.57;;;;;;;7.34;nan;-24021.88;5033586;28;20255;-73
2022/11/09 02:08:33;;;;;;;18.67;8.50;;;;;;;7.06;nan;-24014.22;5020176;28;20271;-74
2022/11/09 02:11:10;;;;;;;19.13;8.40;;;;;;;7.04;nan;-24013.50;5013806;28;20177;-74
2022/11/09 02:13:39;;;;;;;18.90;8.73;;;;;;;7.18;nan;-24017.34;5012116;28;20183;-74
2022/11/09 02:16:05;;;;;;;17.40;8.70;;;;;;;6.99;nan;-24012.09;5013076;28;20550;-74
2022/11/09 02:18:32;;;;;;;20.53;9.43;;;;;;;7.23;nan;-24018.75;5013478;28;20192;-74
2022/11/09 02:20:58;;;;;;;21.73;8.57;;;;;;;7.34;nan;-24022.03;5013334;28;20207;-74
2022/11/09 02:23:25;;;;;;;15.97;8.10;;;;;;;7.36;nan;-24022.44;5013518;28;20541;-75
2022/11/09 02:25:58;;;;;;;17.53;9.13;;;;;;;7.44;nan;-24024.88;5013157;28;20228;-74
2022/11/09 02:28:25;;;;;;;17.83;8.10;;;;;;;6.95;nan;-24011.09;5013157;28;20177;-75
2022/11/09 02:30:53;;;;;;;15.40;8.77;;;;;;;7.09;nan;-24015.06;5013689;28;20176;-75
2022/11/09 02:33:20;;;;;;;17.73;8.73;;;;;;;6.99;nan;-24012.25;5013104;28;20204;-75
2022/11/09 02:35:45;;;;;;;12.17;8.10;;;;;;;7.24;nan;-24019.19;5013162;28;20184;-74
2022/11/09 02:38:13;;;;;;;12.80;6.80;;;;;;;6.80;nan;-24006.72;5012952;28;20178;-74
2022/11/09 02:40:46;;;;;;;16.23;7.53;;;;;;;6.76;nan;-24005.56;5012237;28;20287;-75
2022/11/09 02:43:13;;;;;;;12.60;7.80;;;;;;;6.70;nan;-24004.00;5012473;28;20628;-75
2022/11/09 02:45:39;;;;;;;16.10;8.23;;;;;;;6.69;nan;-24003.59;5013270;28;20243;-75
2022/11/09 02:48:05;;;;;;;13.87;7.40;;;;;;;6.52;nan;-23998.91;5011856;28;20268;-75
2022/11/09 02:50:31;;;;;;;17.13;7.40;;;;;;;6.82;nan;-24007.41;5013046;28;20195;-75
2022/11/09 02:52:56;;;;;;;13.77;7.67;;;;;;;6.92;nan;-24010.25;5012990;28;20585;-75
2022/11/09 02:55:22;;;;;;;16.10;7.47;;;;;;;6.28;nan;-23992.22;5013191;28;20251;-74
2022/11/09 02:57:47;;;;;;;10.83;7.17;;;;;;;6.65;nan;-24002.59;5013086;28;20234;-74
2022/11/09 03:00:13;;;;;;;14.00;7.43;;;;;;;6.48;nan;-23997.75;5012989;28;20674;-75
2022/11/09 03:02:39;;;;;;;13.30;8.00;;;;;;;6.84;nan;-24008.00;5013190;28;20176;-75
2022/11/09 03:05:04;;;;;;;17.80;8.00;;;;;;;6.94;nan;-24010.81;5013160;28;20259;-74
2022/11/09 03:07:31;;;;;;;10.70;7.30;;;;;;;6.56;nan;-24000.19;5013162;28;20172;-74
2022/11/09 03:09:56;;;;;;;21.47;8.67;;;;;;;6.91;nan;-24009.81;5013273;28;20256;-74
2022/11/09 03:12:28;;;;;;;12.37;6.90;;;;;;;6.49;nan;-23998.19;5012811;28;20271;-73
2022/11/09 03:15:01;;;;;;;14.40;7.97;;;;;;;6.57;nan;-24000.31;5012889;28;20238;-74
2022/11/09 03:17:27;;;;;;;13.13;7.80;;;;;;;6.70;nan;-24004.00;5013285;28;20176;-74
2022/11/09 03:19:53;;;;;;;15.50;8.43;;;;;;;6.62;nan;-24001.75;5011321;28;20730;-74
2022/11/09 03:22:19;;;;;;;17.73;8.90;;;;;;;6.74;nan;-24005.00;5012047;28;20643;-73
2022/11/09 03:24:45;;;;;;;18.97;9.20;;;;;;;6.59;nan;-24001.03;5012514;28;20184;-74
2022/11/09 03:27:10;;;;;;;13.77;7.97;;;;;;;6.97;nan;-24011.66;5013090;28;20645;-74
2022/11/09 03:29:36;;;;;;;16.47;9.43;;;;;;;6.94;nan;-24010.69;5012046;28;20670;-74
2022/11/09 03:32:02;;;;;;;11.93;6.77;;;;;;;6.59;nan;-24001.03;5012921;28;20257;-74
2022/11/09 03:34:27;;;;;;;21.70;8.07;;;;;;;6.65;nan;-24002.59;5012733;28;20172;-74
2022/11/09 03:36:52;;;;;;;14.20;8.30;;;;;;;6.93;nan;-24010.53;5012156;28;20179;-75
2022/11/09 03:39:18;;;;;;;12.13;6.57;;;;;;;6.57;nan;-24000.47;5012139;28;20580;-74
2022/11/09 03:41:43;;;;;;;16.67;7.37;;;;;;;6.90;nan;-24009.69;5012433;28;20208;-74
2022/11/09 03:44:08;;;;;;;13.73;7.27;;;;;;;6.97;nan;-24011.66;5012516;28;20230;-74
2022/11/09 03:46:34;;;;;;;18.03;7.07;;;;;;;6.91;nan;-24009.81;5012636;28;20275;-74
2022/11/09 03:48:59;;;;;;;14.90;7.67;;;;;;;6.51;nan;-23998.63;5012279;28;20187;-74
2022/11/09 03:51:24;;;;;;;13.73;7.33;;;;;;;6.58;nan;-24000.75;5012469;28;20548;-74
2022/11/09 03:53:50;;;;;;;15.37;8.20;;;;;;;6.94;nan;-24010.81;5012566;28;20169;-74
2022/11/09 03:56:16;;;;;;;15.03;7.50;;;;;;;7.11;nan;-24015.50;5010936;28;20211;-76
2022/11/09 03:58:42;;;;;;;18.17;7.87;;;;;;;7.13;nan;-24015.94;5010896;28;20176;-74
2022/11/09 04:01:07;;;;;;;14.90;7.67;;;;;;;6.73;nan;-24004.72;5011848;28;20729;-74
2022/11/09 04:03:32;;;;;;;17.43;8.30;;;;;;;7.09;nan;-24015.06;5010906;28;20253;-74
2022/11/09 04:05:58;;;;;;;19.50;8.13;;;;;;;7.03;nan;-24013.22;5011810;28;20208;-74
2022/11/09 04:08:24;;;;;;;18.33;8.87;;;;;;;6.87;nan;-24008.84;5011823;28;20168;-74
2022/11/09 04:10:49;;;;;;;18.27;9.77;;;;;;;6.78;nan;-24006.28;5012027;28;20176;-74
2022/11/09 04:13:14;;;;;;;14.90;8.87;;;;;;;6.98;nan;-24011.81;5010462;28;20176;-74
2022/11/09 04:15:41;;;;;;;18.37;9.43;;;;;;;6.96;nan;-24011.38;5012523;28;20554;-75
2022/11/09 04:18:06;;;;;;;17.97;8.80;;;;;;;6.94;nan;-24010.81;5012127;28;20172;-75
2022/11/09 04:20:31;;;;;;;13.60;7.70;;;;;;;7.10;nan;-24015.34;5011591;28;20209;-74
2022/11/09 04:23:00;;;;;;;15.33;8.00;;;;;;;6.89;nan;-24009.25;5012048;28;20543;-74
2022/11/09 04:25:26;;;;;;;15.40;7.07;;;;;;;6.79;nan;-24006.56;5017005;28;20233;-75
2022/11/09 04:27:56;;;;;;;14.90;7.73;;;;;;;6.70;nan;-24003.88;5019214;28;20275;-74
2022/11/09 04:30:23;;;;;;;17.83;8.30;;;;;;;6.96;nan;-24011.38;5018319;28;20275;-75
2022/11/09 04:32:49;;;;;;;19.90;8.63;;;;;;;6.73;nan;-24004.72;5017157;28;20245;-74
2022/11/09 04:35:14;;;;;;;16.97;8.90;;;;;;;7.03;nan;-24013.38;5017102;28;20188;-74
2022/11/09 04:37:40;;;;;;;21.67;8.67;;;;;;;7.10;nan;-24015.22;5016762;28;20630;-74
2022/11/09 04:40:06;;;;;;;20.10;8.93;;;;;;;6.84;nan;-24008.00;5014794;28;20191;-75
2022/11/09 04:42:31;;;;;;;15.03;8.10;;;;;;;6.87;nan;-24008.84;5015813;28;20184;-74
2022/11/09 04:44:56;;;;;;;18.17;9.50;;;;;;;7.07;nan;-24014.38;5015933;28;20617;-75
2022/11/09 04:47:22;;;;;;;16.70;8.63;;;;;;;6.71;nan;-24004.28;5015988;28;20172;-75
2022/11/09 04:49:47;;;;;;;18.10;9.40;;;;;;;6.81;nan;-24007.00;5015864;28;20267;-74
2022/11/09 04:52:13;;;;;;;17.87;9.37;;;;;;;7.22;nan;-24018.47;5014662;28;20219;-74
2022/11/09 04:54:38;;;;;;;21.70;9.37;;;;;;;7.38;nan;-24023.00;5016878;28;20845;-75
2022/11/09 04:57:03;;;;;;;20.50;9.10;;;;;;;7.10;nan;-24015.34;5014969;28;20279;-76
2022/11/09 04:59:29;;;;;;;14.23;7.87;;;;;;;7.44;nan;-24024.88;5015823;28;20231;-74
2022/11/09 05:01:54;;;;;;;17.37;8.93;;;;;;;7.08;nan;-24014.66;5016184;28;20553;-75
2022/11/09 05:04:20;;;;;;;24.70;8.57;;;;;;;7.49;nan;-24026.13;5015977;28;20183;-76
2022/11/09 05:06:45;;;;;;;18.43;9.10;;;;;;;7.51;nan;-24026.84;5015726;28;20186;-75
2022/11/09 05:09:11;;;;;;;15.87;8.30;;;;;;;7.09;nan;-24015.06;5016682;28;20195;-76
2022/11/09 05:11:49;;;;;;;17.23;9.50;;;;;;;3.46;nan;-23912.97;5016267;28;20266;-74
2022/11/09 05:14:18;;;;;;;22.07;8.50;;;;;;;7.28;nan;-24020.19;5016189;28;20188;-74
2022/11/09 05:16:43;;;;;;;13.57;8.40;;;;;;;7.17;nan;-24017.06;5019721;28;20576;-74
2022/11/09 05:19:09;;;;;;;13.37;7.40;;;;;;;7.16;nan;-24016.78;5020739;28;20321;-74
2022/11/09 05:21:34;;;;;;;15.60;7.60;;;;;;;7.37;nan;-24022.72;5025407;28;20202;-74
2022/11/09 05:24:00;;;;;;;19.60;8.30;;;;;;;7.38;nan;-24023.00;5029746;28;20643;-75
2022/11/09 05:26:34;;;;;;;12.17;7.83;;;;;;;7.54;nan;-24027.56;5013989;28;20216;-74
2022/11/09 05:29:01;;;;;;;15.00;7.80;;;;;;;7.18;nan;-24017.34;5033695;28;20630;-75
2022/11/09 05:31:27;;;;;;;14.20;8.40;;;;;;;7.44;nan;-24024.88;5034521;28;20195;-73
2022/11/09 05:33:53;;;;;;;21.53;11.17;;;;;;;7.58;nan;-24028.69;5033970;28;20175;-73
2022/11/09 05:36:20;;;;;;;23.10;8.13;;;;;;;7.72;nan;-24032.50;5034103;28;20171;-74
2022/11/09 05:38:45;;;;;;;30.57;9.77;;;;;;;7.51;nan;-24026.84;5031782;28;20245;-74
2022/11/09 05:41:11;;;;;;;15.47;9.03;;;;;;;7.63;nan;-24029.97;5013562;28;20279;-75
2022/11/09 05:43:36;;;;;;;22.73;9.40;;;;;;;7.98;nan;-24040.03;5014240;28;20187;-74
2022/11/09 05:46:02;;;;;;;18.83;7.87;;;;;;;7.99;nan;-24040.16;5014010;28;20168;-73
2022/11/09 05:48:27;;;;;;;11.57;7.93;;;;;;;7.88;nan;-24037.19;5012341;28;20541;-74
2022/11/09 05:50:53;;;;;;;13.03;8.20;;;;;;;8.30;nan;-24048.81;5013525;28;20172;-74
2022/11/09 05:53:18;;;;;;;21.40;9.00;;;;;;;7.71;nan;-24032.38;5013823;28;20200;-74
2022/11/09 05:55:43;;;;;;;16.23;8.83;;;;;;;8.15;nan;-24044.56;5013835;28;20180;-73
2022/11/09 05:58:09;;;;;;;27.00;11.00;;;;;;;8.48;nan;-24053.91;5013767;28;20168;-73
2022/11/09 06:00:34;;;;;;;22.97;10.60;;;;;;;8.10;nan;-24043.13;5013716;28;20198;-73
2022/11/09 06:03:02;;;;;;;23.43;11.03;;;;;;;8.61;nan;-24057.56;5024105;28;20226;-73
2022/11/09 06:05:28;;;;;;;19.03;9.80;;;;;;;8.69;nan;-24059.69;5020756;28;20730;-73
2022/11/09 06:07:53;;;;;;;20.97;9.53;;;;;;;8.53;nan;-24055.31;5032050;28;20167;-73
2022/11/09 06:10:19;;;;;;;25.90;10.93;;;;;;;8.55;nan;-24055.75;5026981;28;20261;-74
2022/11/09 06:12:49;;;;;;;25.53;10.03;;;;;;;8.32;nan;-24049.38;5022715;28;20180;-74
2022/11/09 06:15:14;;;;;;;18.80;8.50;;;;;;;8.43;nan;-24052.63;5030595;28;20176;-73
2022/11/09 06:17:40;;;;;;;19.03;9.87;;;;;;;8.45;nan;-24052.91;5030632;28;20946;-73
2022/11/09 06:20:06;;;;;;;19.63;9.63;;;;;;;8.28;nan;-24048.22;5013340;28;20548;-73
2022/11/09 06:22:31;;;;;;;20.77;9.53;;;;;;;7.97;nan;-24039.59;5013336;28;20229;-73
2022/11/09 06:24:56;;;;;;;25.80;10.47;;;;;;;8.00;nan;-24040.59;5013058;28;20263;-72
2022/11/09 06:27:22;;;;;;;26.70;11.27;;;;;;;8.30;nan;-24048.81;5012503;28;20230;-73
2022/11/09 06:29:47;;;;;;;26.73;11.97;;;;;;;8.32;nan;-24049.38;5013454;28;20180;-73
2022/11/09 06:32:12;;;;;;;28.03;14.47;;;;;;;8.14;nan;-24044.28;5012713;28;20172;-74
2022/11/09 06:34:38;;;;;;;28.30;14.57;;;;;;;7.91;nan;-24038.03;5012469;28;20202;-73
2022/11/09 06:37:03;;;;;;;32.27;16.30;;;;;;;7.96;nan;-24039.31;5012951;28;20168;-70
2022/11/09 06:39:29;;;;;;;33.47;16.93;;;;;;;8.36;nan;-24050.50;5013477;28;20187;-70
2022/11/09 06:41:54;;;;;;;31.97;17.77;;;;;;;8.47;nan;-24053.63;5013500;28;20203;-71
2022/11/09 06:44:19;;;;;;;38.27;15.33;;;;;;;8.37;nan;-24050.78;5012385;28;20619;-71
2022/11/09 06:46:45;;;;;;;31.17;15.17;;;;;;;8.51;nan;-24054.59;5013730;28;20199;-73
2022/11/09 06:49:10;;;;;;;28.07;15.03;;;;;;;8.62;nan;-24057.72;5013357;28;20172;-70
2022/11/09 06:51:35;;;;;;;28.10;15.97;;;;;;;9.03;nan;-24069.19;5013632;28;20176;-71
2022/11/09 06:54:01;;;;;;;35.43;15.43;;;;;;;9.31;nan;-24077.09;5012292;28;20172;-70
2022/11/09 06:56:26;;;;;;;30.40;15.77;;;;;;;9.10;nan;-24071.16;5013159;28;20561;-70
2022/11/09 06:58:52;;;;;;;31.63;14.53;;;;;;;9.20;nan;-24074.00;5012828;28;20168;-70
2022/11/09 07:01:20;;;;;;;25.67;13.70;;;;;;;9.72;nan;-24088.53;5012711;28;20188;-71
2022/11/09 07:03:45;;;;;;;33.73;14.70;;;;;;;9.92;nan;-24094.06;5013025;28;20548;-71
2022/11/09 07:06:11;;;;;;;29.27;15.02;;;;;;;9.63;nan;-24086.00;5012957;28;20172;-71
2022/11/09 07:08:37;;;;;;;29.65;14.82;;;;;;;9.92;nan;-24094.06;5012767;28;20330;-71
2022/11/09 07:11:10;;;;;;;29.15;14.63;;;;;;;10.09;nan;-24098.84;5013319;28;20592;-72
2022/11/09 07:13:37;;;;;;;27.85;14.00;;;;;;;10.49;nan;-24110.16;5012984;28;20247;-70
2022/11/09 07:16:03;;;;;;;33.35;14.80;;;;;;;10.44;nan;-24108.75;5012276;28;20160;-71
2022/11/09 07:18:28;;;;;;;29.55;14.73;;;;;;;10.89;nan;-24121.28;5012726;28;20251;-70
2022/11/09 07:20:54;;;;;;;35.03;16.98;;;;;;;10.96;nan;-24123.25;5013028;28;20726;-71
2022/11/09 07:23:19;;;;;;;31.58;15.32;;;;;;;10.84;nan;-24119.75;5012644;28;20234;-71
2022/11/09 07:25:45;;;;;;;31.42;15.90;;;;;;;11.17;nan;-24129.03;5012857;28;20314;-72
2022/11/09 07:28:11;;;;;;;30.90;15.30;;;;;;;11.04;nan;-24125.38;5012724;28;20182;-72
2022/11/09 07:30:37;;;;;;;33.95;16.42;;;;;;;11.57;nan;-24140.19;5012509;28;20184;-71
2022/11/09 07:33:03;;;;;;;36.40;16.30;;;;;;;11.22;nan;-24130.31;5012934;28;20172;-70
2022/11/09 07:35:29;;;;;;;27.70;14.93;;;;;;;11.47;nan;-24137.50;5012423;28;20596;-70
2022/11/09 07:37:58;;;;;;;32.10;16.05;;;;;;;11.63;nan;-24141.88;5011087;28;20203;-72
2022/11/09 07:40:23;;;;;;;32.70;15.18;;;;;;;11.61;nan;-24141.16;5012591;28;20286;-71
2022/11/09 07:42:49;;;;;;;43.33;18.05;;;;;;;11.76;nan;-24145.41;5012370;28;20264;-71
2022/11/09 07:45:14;;;;;;;27.65;16.17;;;;;;;12.00;nan;-24152.00;5012307;28;20183;-70
2022/11/09 07:47:40;;;;;;;36.15;15.35;;;;;;;12.08;nan;-24154.41;5011452;28;20233;-71
2022/11/09 07:50:05;;;;;;;33.28;15.63;;;;;;;11.95;nan;-24150.75;5012525;28;20275;-71
2022/11/09 07:52:31;;;;;;;31.58;17.13;;;;;;;12.41;nan;-24163.56;5011923;28;20169;-72
2022/11/09 07:54:56;;;;;;;32.15;15.93;;;;;;;12.40;nan;-24163.41;5012519;28;20176;-72
2022/11/09 07:57:21;;;;;;;35.42;15.55;;;;;;;12.62;nan;-24169.47;5012388;28;20183;-71
2022/11/09 07:59:47;;;;;;;32.97;16.40;;;;;;;12.39;nan;-24163.00;5012061;28;20288;-72
2022/11/09 08:02:12;;;;;;;45.17;17.92;;;;;;;8.53;nan;-24055.16;5010978;28;20238;-72
2022/11/09 08:04:37;;;;;;;36.05;16.73;;;;;;;12.87;nan;-24176.22;5012035;28;20176;-72
2022/11/09 08:07:03;;;;;;;38.70;16.48;;;;;;;13.09;nan;-24182.41;5011804;28;20174;-71
2022/11/09 08:09:28;;;;;;;37.10;17.10;;;;;;;12.67;nan;-24170.72;5012185;28;20604;-70
2022/11/09 08:11:54;;;;;;;34.05;15.85;;;;;;;13.05;nan;-24181.41;5012200;28;20576;-61
2022/11/09 08:14:19;;;;;;;38.42;16.23;;;;;;;13.26;nan;-24187.31;5011594;28;20179;-62
2022/11/09 08:16:45;;;;;;;32.75;17.80;;;;;;;13.45;nan;-24192.53;5012126;28;20251;-63
2022/11/09 08:19:10;;;;;;;38.60;16.00;;;;;;;13.61;nan;-24196.88;5012039;28;20188;-64
2022/11/09 08:21:36;;;;;;;36.42;15.93;;;;;;;13.65;nan;-24198.00;5011895;28;20196;-63
2022/11/09 08:24:04;;;;;;;36.08;17.05;;;;;;;13.62;nan;-24197.16;5011485;28;20175;-65
2022/11/09 08:26:30;;;;;;;37.75;17.00;;;;;;;13.85;nan;-24203.59;5012003;28;20220;-61
2022/11/09 08:28:55;;;;;;;32.90;16.88;;;;;;;13.88;nan;-24204.44;5011254;28;20183;-58
2022/11/09 08:31:20;;;;;;;45.15;16.88;;;;;;;13.94;nan;-24206.00;5010948;28;20188;-59
2022/11/09 08:33:46;;;;;;;45.60;19.55;;;;;;;13.87;nan;-24204.16;5011640;28;20195;-60
2022/11/09 08:36:14;;;;;;;38.28;17.63;;;;;;;14.04;nan;-24208.81;5011391;28;20222;-62
2022/11/09 08:38:40;;;;;;;39.10;18.27;;;;;;;14.34;nan;-24217.06;5010886;28;20214;-62
2022/11/09 08:41:06;;;;;;;38.22;17.35;;;;;;;;;;5011138;28;20202;-63
2022/11/09 08:43:32;;;;;;;42.28;18.23;;;;;;;14.49;nan;-24221.28;5010822;28;20180;-61
2022/11/09 08:45:58;;;;;;;41.42;17.63;;;;;;;14.07;nan;-24209.63;5011515;28;20206;-62
2022/11/09 08:48:23;;;;;;;36.70;17.25;;;;;;;14.56;nan;-24223.25;5011754;28;20172;-62
2022/11/09 08:50:54;;;;;;;42.15;17.38;;;;;;;14.70;nan;-24227.19;5014567;28;20646;-62
2022/11/09 08:53:20;;;;;;;38.25;17.33;;;;;;;14.80;nan;-24229.84;5015371;28;20226;-63
2022/11/09 08:55:45;;;;;;;32.72;16.10;;;;;;;14.54;nan;-24222.84;5012982;28;20266;-64
2022/11/09 08:58:11;;;;;;;34.90;15.55;;;;;;;15.03;nan;-24236.44;5014744;28;20176;-64
2022/11/09 09:00:36;;;;;;;33.10;16.88;;;;;;;14.92;nan;-24233.34;5014474;28;20227;-61
2022/11/09 09:03:04;;;;;;;37.67;16.20;;;;;;;15.42;nan;-24247.06;5014815;28;20573;-64
2022/11/09 09:05:30;;;;;;;38.75;18.02;;;;;;;15.55;nan;-24250.72;5014369;28;20202;-62
2022/11/09 09:07:58;;;;;;;38.60;18.38;;;;;;;15.68;nan;-24254.34;5015186;28;20615;-63
2022/11/09 09:10:23;;;;;;;37.42;17.00;;;;;;;16.02;nan;-24263.59;5014199;28;20183;-62
2022/11/09 09:12:48;;;;;;;37.88;15.80;;;;;;;15.82;nan;-24258.28;5014259;28;20263;-62
2022/11/09 09:15:14;;;;;;;35.03;16.65;;;;;;;15.89;nan;-24260.22;5014301;28;20638;-62
2022/11/09 09:17:39;;;;;;;34.20;16.15;;;;;;;15.78;nan;-24257.16;5014345;28;20176;-63
2022/11/09 09:20:05;;;;;;;37.10;16.17;;;;;;;15.42;nan;-24247.22;5012701;28;20659;-66
2022/11/09 09:22:32;;;;;;;39.03;15.90;;;;;;;15.27;nan;-24242.88;5014437;28;20254;-62
2022/11/09 09:24:57;;;;;;;35.38;14.85;;;;;;;15.64;nan;-24253.22;5015017;28;20628;-63
2022/11/09 09:27:23;;;;;;;40.25;17.40;;;;;;;16.09;nan;-24265.56;5015111;28;20231;-63
2022/11/09 09:29:48;;;;;;;35.25;15.15;;;;;;;16.28;nan;-24270.84;5014915;28;20256;-63
2022/11/09 09:32:13;;;;;;;35.00;15.07;;;;;;;16.24;nan;-24269.88;5014904;28;20636;-63
2022/11/09 09:34:39;;;;;;;33.47;15.13;;;;;;;16.62;nan;-24280.38;5015075;28;20164;-61
2022/11/09 09:37:04;;;;;;;37.20;16.33;;;;;;;16.42;nan;-24274.63;5014617;28;20193;-63
2022/11/09 09:39:29;;;;;;;32.88;14.38;;;;;;;15.80;nan;-24257.56;5014548;28;20646;-63
2022/11/09 09:42:01;;;;;;;30.27;14.90;;;;;;;15.73;nan;-24255.75;5014665;28;20207;-61
2022/11/09 09:44:48;;;;;;;38.50;14.77;;;;;;;15.85;nan;-24259.13;5014711;28;20259;-65
2022/11/09 09:47:25;;;;;;;31.75;14.40;;;;;;;16.03;nan;-24263.88;5014863;28;20612;-62
2022/11/09 09:50:22;;;;;;;28.00;14.07;;;;;;;16.06;nan;-24264.84;5014781;28;20171;-63
2022/11/09 09:53:10;;;;;;;32.83;13.43;;;;;;;15.86;nan;-24259.38;5013363;28;20192;-63
2022/11/09 09:55:39;;;;;;;33.75;14.95;;;;;;;16.23;nan;-24269.59;5014656;28;20266;-63
2022/11/09 09:58:22;;;;;;;29.10;13.63;;;;;;;16.23;nan;-24269.47;5013915;28;20198;-61
2022/11/09 10:00:52;;;;;;;32.47;13.88;;;;;;;15.96;nan;-24262.06;5014101;28;20199;-62
2022/11/09 10:03:19;;;;;;;32.17;13.75;;;;;;;16.14;nan;-24266.94;5014541;28;20184;-64
2022/11/09 10:05:57;;;;;;;26.25;12.35;;;;;;;15.94;nan;-24261.50;5014212;28;20207;-61
2022/11/09 10:08:51;;;;;;;32.20;13.05;;;;;;;16.15;nan;-24267.22;5014122;28;20172;-61
2022/11/09 10:11:30;;;;;;;23.05;11.95;;;;;;;16.24;nan;-24269.88;5014011;28;20279;-61
2022/11/09 10:14:03;;;;;;;25.63;11.27;;;;;;;16.52;nan;-24277.44;5013778;28;20226;-62
2022/11/09 10:16:34;;;;;;;25.55;12.40;;;;;;;16.79;nan;-24284.97;5014064;28;20256;-63
2022/11/09 10:19:14;;;;;;;25.73;11.07;;;;;;;16.93;nan;-24288.75;5013750;28;20183;-62
2022/11/09 10:21:48;;;;;;;28.88;12.88;;;;;;;17.00;nan;-24290.72;5014121;28;20235;-61
2022/11/09 10:24:30;;;;;;;27.48;13.40;;;;;;;16.91;nan;-24288.34;5013957;28;20242;-63
2022/11/09 10:26:58;;;;;;;25.73;12.52;;;;;;;17.04;nan;-24291.97;5013578;28;20761;-63
2022/11/09 10:29:37;;;;;;;24.77;11.95;;;;;;;16.87;nan;-24287.06;5013822;28;20182;-62
2022/11/09 10:32:15;;;;;;;26.85;11.88;;;;;;;17.34;nan;-24300.06;5013620;28;20172;-63
2022/11/09 10:34:59;;;;;;;22.80;11.20;;;;;;;17.60;nan;-24307.47;5013748;28;20183;-64
2022/11/09 10:37:27;;;;;;;24.65;12.73;;;;;;;17.84;nan;-24314.00;5013275;28;20230;-63
2022/11/09 10:40:24;;;;;;;21.27;10.90;;;;;;;17.94;nan;-24316.66;5013540;28;20230;-63
2022/11/09 10:42:53;;;;;;;24.33;10.77;;;;;;;15.97;nan;-24262.31;5011143;28;20203;-62
2022/11/09 10:45:34;;;;;;;22.05;10.52;;;;;;;17.61;nan;-24307.75;5013533;28;20176;-63
2022/11/09 10:48:00;;;;;;;18.38;9.75;;;;;;;18.06;nan;-24320.16;5013324;28;20673;-63
2022/11/09 10:50:32;;;;;;;20.13;9.40;;;;;;;18.08;nan;-24320.56;5012951;28;20208;-63
2022/11/09 10:53:18;;;;;;;19.55;9.57;;;;;;;18.22;nan;-24324.34;5013575;28;20267;-64
2022/11/09 10:56:08;;;;;;;18.75;9.18;;;;;;;18.24;nan;-24324.88;5013096;28;20176;-64
2022/11/09 10:58:36;;;;;;;25.85;11.52;;;;;;;18.31;nan;-24326.84;5013540;28;20172;-63
2022/11/09 11:01:10;;;;;;;29.50;11.20;;;;;;;18.13;nan;-24321.81;5012905;28;20208;-63
2022/11/09 11:03:38;;;;;;;23.23;11.02;;;;;;;17.30;nan;-24299.09;5013295;28;20182;-62
2022/11/09 11:06:05;;;;;;;23.50;12.18;;;;;;;17.90;nan;-24315.53;5012768;28;20203;-64
2022/11/09 11:08:42;;;;;;;20.85;11.25;;;;;;;17.83;nan;-24313.59;5012696;28;20554;-63
2022/11/09 11:11:32;;;;;;;21.70;10.40;;;;;;;17.93;nan;-24316.53;5012494;28;20184;-62
2022/11/09 11:14:14;;;;;;;23.65;10.48;;;;;;;18.04;nan;-24319.59;5012676;28;20229;-63
2022/11/09 11:16:42;;;;;;;21.08;10.80;;;;;;;18.16;nan;-24322.81;5012851;28;20222;-63
2022/11/09 11:19:26;;;;;;;29.85;10.68;;;;;;;18.36;nan;-24328.38;5012626;28;20171;-63
2022/11/09 11:22:10;;;;;;;20.00;9.88;;;;;;;18.29;nan;-24326.41;5012238;28;20211;-62
2022/11/09 11:25:02;;;;;;;24.15;10.23;;;;;;;18.26;nan;-24325.59;5012812;28;20196;-64
2022/11/09 11:27:52;;;;;;;22.58;10.43;;;;;;;18.24;nan;-24325.03;5012125;28;20711;-64
2022/11/09 11:30:27;;;;;;;24.52;10.90;;;;;;;18.02;nan;-24319.03;5012283;28;20629;-63
2022/11/09 11:32:56;;;;;;;26.80;11.45;;;;;;;18.00;nan;-24318.34;5012518;28;20231;-64
2022/11/09 11:35:46;;;;;;;20.10;10.45;;;;;;;17.80;nan;-24312.91;5012260;28;20198;-62
2022/11/09 11:38:14;;;;;;;21.85;10.65;;;;;;;17.62;nan;-24308.00;5011986;28;20176;-64
2022/11/09 11:40:51;;;;;;;26.65;11.02;;;;;;;17.54;nan;-24305.78;5011922;28;20250;-63